Terminal Aerodrome Forecast
Issued by NWS Des Moines, IA

Home | Current Version | Previous Version | Text Only | Print | Product List | Glossary On
Versions: 1 2 3 4 5 6 7 8 9 10 11 12 13 14 15 16 17
000
FTUS43 KDMX 140211 AAA
TAFDSM
TAF AMD
KDSM 140211Z 1402/1424 33018G33KT P6SM OVC040
     FM140400 34014G22KT P6SM BKN045
     FM140900 32008KT P6SM BKN050
     FM141100 33008KT P6SM BKN070=

USA.gov is the U.S. government's official web portal to all federal, state and local government web resources and services.